sensor_id;sensor_type;location;lat;lon;timestamp;temperature;humidity
35531;DHT22;21637;53.352;-6.356;2024-03-06T00:01:48;3.70;99.90
35531;DHT22;21637;53.352;-6.356;2024-03-06T00:04:13;3.70;99.90
35531;DHT22;21637;53.352;-6.356;2024-03-06T00:06:39;3.60;99.90
35531;DHT22;21637;53.352;-6.356;2024-03-06T00:09:05;3.60;99.90
35531;DHT22;21637;53.352;-6.356;2024-03-06T00:11:31;3.50;99.90
35531;DHT22;21637;53.352;-6.356;2024-03-06T00:13:56;3.50;99.90
35531;DHT22;21637;53.352;-6.356;2024-03-06T00:16:22;3.50;99.90
35531;DHT22;21637;53.352;-6.356;2024-03-06T00:18:48;3.50;99.90
35531;DHT22;21637;53.352;-6.356;2024-03-06T00:21:13;3.50;99.90
35531;DHT22;21637;53.352;-6.356;2024-03-06T00:23:39;3.50;99.90
35531;DHT22;21637;53.352;-6.356;2024-03-06T00:26:05;3.40;99.90
35531;DHT22;21637;53.352;-6.356;2024-03-06T00:28:31;3.40;99.90
35531;DHT22;21637;53.352;-6.356;2024-03-06T00:30:56;3.40;99.90
35531;DHT22;21637;53.352;-6.356;2024-03-06T00:33:23;3.30;99.90
35531;DHT22;21637;53.352;-6.356;2024-03-06T00:35:48;3.30;99.90
35531;DHT22;21637;53.352;-6.356;2024-03-06T00:38:15;3.30;99.90
35531;DHT22;21637;53.352;-6.356;2024-03-06T00:40:40;3.30;99.90
35531;DHT22;21637;53.352;-6.356;2024-03-06T00:43:06;3.30;99.90
35531;DHT22;21637;53.352;-6.356;2024-03-06T00:45:32;3.30;99.90
35531;DHT22;21637;53.352;-6.356;2024-03-06T00:47:58;3.30;99.90
35531;DHT22;21637;53.352;-6.356;2024-03-06T00:50:24;3.20;99.90
35531;DHT22;21637;53.352;-6.356;2024-03-06T00:52:50;3.20;99.90
35531;DHT22;21637;53.352;-6.356;2024-03-06T00:55:16;3.10;99.90
35531;DHT22;21637;53.352;-6.356;2024-03-06T00:57:41;3.10;99.90
35531;DHT22;21637;53.352;-6.356;2024-03-06T01:00:08;3.00;99.90
35531;DHT22;21637;53.352;-6.356;2024-03-06T01:02:37;3.00;99.90
35531;DHT22;21637;53.352;-6.356;2024-03-06T01:05:03;3.00;99.90
35531;DHT22;21637;53.352;-6.356;2024-03-06T01:07:30;3.00;99.90
35531;DHT22;21637;53.352;-6.356;2024-03-06T01:09:59;2.90;99.90
35531;DHT22;21637;53.352;-6.356;2024-03-06T01:12:25;2.90;99.90
35531;DHT22;21637;53.352;-6.356;2024-03-06T01:14:51;2.90;99.90
35531;DHT22;21637;53.352;-6.356;2024-03-06T01:17:17;2.90;99.90
35531;DHT22;21637;53.352;-6.356;2024-03-06T01:19:42;2.90;99.90
35531;DHT22;21637;53.352;-6.356;2024-03-06T01:22:11;2.90;99.90
35531;DHT22;21637;53.352;-6.356;2024-03-06T01:24:39;2.80;99.90
35531;DHT22;21637;53.352;-6.356;2024-03-06T01:27:05;2.90;99.90
35531;DHT22;21637;53.352;-6.356;2024-03-06T01:29:30;2.90;99.90
35531;DHT22;21637;53.352;-6.356;2024-03-06T01:31:56;2.90;99.90
35531;DHT22;21637;53.352;-6.356;2024-03-06T01:34:22;2.80;99.90
35531;DHT22;21637;53.352;-6.356;2024-03-06T01:36:48;2.80;99.90
35531;DHT22;21637;53.352;-6.356;2024-03-06T01:39:14;2.80;99.90
35531;DHT22;21637;53.352;-6.356;2024-03-06T01:41:46;2.80;99.90
35531;DHT22;21637;53.352;-6.356;2024-03-06T01:44:16;2.70;99.90
35531;DHT22;21637;53.352;-6.356;2024-03-06T01:46:43;2.70;99.90
35531;DHT22;21637;53.352;-6.356;2024-03-06T01:49:11;2.70;99.90
35531;DHT22;21637;53.352;-6.356;2024-03-06T01:51:39;2.80;99.90
35531;DHT22;21637;53.352;-6.356;2024-03-06T01:54:06;2.70;99.90
35531;DHT22;21637;53.352;-6.356;2024-03-06T01:56:37;2.70;99.90
35531;DHT22;21637;53.352;-6.356;2024-03-06T01:59:04;2.70;99.90
35531;DHT22;21637;53.352;-6.356;2024-03-06T02:01:32;2.80;99.90
35531;DHT22;21637;53.352;-6.356;2024-03-06T02:03:59;2.80;99.90
35531;DHT22;21637;53.352;-6.356;2024-03-06T02:06:25;2.70;99.90
35531;DHT22;21637;53.352;-6.356;2024-03-06T02:08:51;2.70;99.90
35531;DHT22;21637;53.352;-6.356;2024-03-06T02:11:17;2.70;99.90
35531;DHT22;21637;53.352;-6.356;2024-03-06T02:13:43;2.70;99.90
35531;DHT22;21637;53.352;-6.356;2024-03-06T02:16:10;2.70;99.90
35531;DHT22;21637;53.352;-6.356;2024-03-06T02:18:36;2.60;99.90
35531;DHT22;21637;53.352;-6.356;2024-03-06T02:21:03;2.50;99.90
35531;DHT22;21637;53.352;-6.356;2024-03-06T02:23:30;2.50;99.90
35531;DHT22;21637;53.352;-6.356;2024-03-06T02:25:56;2.40;99.90
35531;DHT22;21637;53.352;-6.356;2024-03-06T02:28:22;2.40;99.90
35531;DHT22;21637;53.352;-6.356;2024-03-06T02:30:51;2.40;99.90
35531;DHT22;21637;53.352;-6.356;2024-03-06T02:33:17;2.30;99.90
35531;DHT22;21637;53.352;-6.356;2024-03-06T02:35:43;2.40;99.90
35531;DHT22;21637;53.352;-6.356;2024-03-06T02:38:10;2.30;99.90
35531;DHT22;21637;53.352;-6.356;2024-03-06T02:40:36;2.30;99.90
35531;DHT22;21637;53.352;-6.356;2024-03-06T02:43:02;2.30;99.90
35531;DHT22;21637;53.352;-6.356;2024-03-06T02:45:28;2.30;99.90
35531;DHT22;21637;53.352;-6.356;2024-03-06T02:47:53;2.20;99.90
35531;DHT22;21637;53.352;-6.356;2024-03-06T02:50:19;2.10;99.90
35531;DHT22;21637;53.352;-6.356;2024-03-06T02:52:46;2.20;99.90
35531;DHT22;21637;53.352;-6.356;2024-03-06T02:55:12;2.10;99.90
35531;DHT22;21637;53.352;-6.356;2024-03-06T02:57:38;2.00;99.90
35531;DHT22;21637;53.352;-6.356;2024-03-06T03:00:04;2.00;99.90
35531;DHT22;21637;53.352;-6.356;2024-03-06T03:02:30;1.90;99.90
35531;DHT22;21637;53.352;-6.356;2024-03-06T03:04:56;2.00;99.90
35531;DHT22;21637;53.352;-6.356;2024-03-06T03:07:23;2.00;99.90
35531;DHT22;21637;53.352;-6.356;2024-03-06T03:09:49;2.00;99.90
35531;DHT22;21637;53.352;-6.356;2024-03-06T03:12:15;1.90;99.90
35531;DHT22;21637;53.352;-6.356;2024-03-06T03:14:40;1.90;99.90
35531;DHT22;21637;53.352;-6.356;2024-03-06T03:17:07;1.80;99.90
35531;DHT22;21637;53.352;-6.356;2024-03-06T03:19:32;1.80;99.90
35531;DHT22;21637;53.352;-6.356;2024-03-06T03:21:59;1.90;99.90
35531;DHT22;21637;53.352;-6.356;2024-03-06T03:24:25;1.90;99.90
35531;DHT22;21637;53.352;-6.356;2024-03-06T03:26:51;1.90;99.90
35531;DHT22;21637;53.352;-6.356;2024-03-06T03:29:18;2.00;99.90
35531;DHT22;21637;53.352;-6.356;2024-03-06T03:31:43;1.90;99.90
35531;DHT22;21637;53.352;-6.356;2024-03-06T03:34:09;2.00;99.90
35531;DHT22;21637;53.352;-6.356;2024-03-06T03:36:40;1.90;99.90
35531;DHT22;21637;53.352;-6.356;2024-03-06T03:39:06;1.80;99.90
35531;DHT22;21637;53.352;-6.356;2024-03-06T03:41:42;1.80;99.90
35531;DHT22;21637;53.352;-6.356;2024-03-06T03:44:07;1.70;99.90
35531;DHT22;21637;53.352;-6.356;2024-03-06T03:46:33;1.60;99.90
35531;DHT22;21637;53.352;-6.356;2024-03-06T03:48:59;1.60;99.90
35531;DHT22;21637;53.352;-6.356;2024-03-06T03:51:25;1.70;99.90
35531;DHT22;21637;53.352;-6.356;2024-03-06T03:53:50;1.80;99.90
35531;DHT22;21637;53.352;-6.356;2024-03-06T03:56:18;1.80;99.90
35531;DHT22;21637;53.352;-6.356;2024-03-06T03:58:44;1.70;99.90
35531;DHT22;21637;53.352;-6.356;2024-03-06T04:01:12;1.70;99.90
35531;DHT22;21637;53.352;-6.356;2024-03-06T04:03:38;1.70;99.90
35531;DHT22;21637;53.352;-6.356;2024-03-06T04:06:04;1.70;99.90
35531;DHT22;21637;53.352;-6.356;2024-03-06T04:08:30;1.70;99.90
35531;DHT22;21637;53.352;-6.356;2024-03-06T04:10:55;1.70;99.90
35531;DHT22;21637;53.352;-6.356;2024-03-06T04:13:21;1.70;99.90
35531;DHT22;21637;53.352;-6.356;2024-03-06T04:15:47;1.70;99.90
35531;DHT22;21637;53.352;-6.356;2024-03-06T04:18:13;1.70;99.90
35531;DHT22;21637;53.352;-6.356;2024-03-06T04:20:38;1.70;99.90
35531;DHT22;21637;53.352;-6.356;2024-03-06T04:23:04;1.70;99.90
35531;DHT22;21637;53.352;-6.356;2024-03-06T04:25:30;1.70;99.90
35531;DHT22;21637;53.352;-6.356;2024-03-06T04:27:55;1.60;99.90
35531;DHT22;21637;53.352;-6.356;2024-03-06T04:30:21;1.60;99.90
35531;DHT22;21637;53.352;-6.356;2024-03-06T04:32:47;1.70;99.90
35531;DHT22;21637;53.352;-6.356;2024-03-06T04:35:12;1.70;99.90
35531;DHT22;21637;53.352;-6.356;2024-03-06T04:37:39;1.60;99.90
35531;DHT22;21637;53.352;-6.356;2024-03-06T04:40:05;1.70;99.90
35531;DHT22;21637;53.352;-6.356;2024-03-06T04:42:34;1.70;99.90
35531;DHT22;21637;53.352;-6.356;2024-03-06T04:45:02;1.70;99.90
35531;DHT22;21637;53.352;-6.356;2024-03-06T04:47:29;1.70;99.90
35531;DHT22;21637;53.352;-6.356;2024-03-06T04:49:55;1.70;99.90
35531;DHT22;21637;53.352;-6.356;2024-03-06T04:52:20;1.60;99.90
35531;DHT22;21637;53.352;-6.356;2024-03-06T04:54:46;1.60;99.90
35531;DHT22;21637;53.352;-6.356;2024-03-06T04:57:12;1.70;99.90
35531;DHT22;21637;53.352;-6.356;2024-03-06T04:59:37;1.70;99.90
35531;DHT22;21637;53.352;-6.356;2024-03-06T05:02:03;1.70;99.90
35531;DHT22;21637;53.352;-6.356;2024-03-06T05:04:29;1.70;99.90
35531;DHT22;21637;53.352;-6.356;2024-03-06T05:06:55;1.80;99.90
35531;DHT22;21637;53.352;-6.356;2024-03-06T05:09:21;1.90;99.90
35531;DHT22;21637;53.352;-6.356;2024-03-06T05:11:47;1.90;99.90
35531;DHT22;21637;53.352;-6.356;2024-03-06T05:14:16;1.90;99.90
35531;DHT22;21637;53.352;-6.356;2024-03-06T05:16:42;1.80;99.90
35531;DHT22;21637;53.352;-6.356;2024-03-06T05:19:08;1.90;99.90
35531;DHT22;21637;53.352;-6.356;2024-03-06T05:21:34;1.80;99.90
35531;DHT22;21637;53.352;-6.356;2024-03-06T05:24:00;1.80;99.90
35531;DHT22;21637;53.352;-6.356;2024-03-06T05:26:26;1.70;99.90
35531;DHT22;21637;53.352;-6.356;2024-03-06T05:28:52;1.60;99.90
35531;DHT22;21637;53.352;-6.356;2024-03-06T05:31:19;1.60;99.90
35531;DHT22;21637;53.352;-6.356;2024-03-06T05:33:48;1.60;99.90
35531;DHT22;21637;53.352;-6.356;2024-03-06T05:36:18;1.60;99.90
35531;DHT22;21637;53.352;-6.356;2024-03-06T05:38:44;1.60;99.90
35531;DHT22;21637;53.352;-6.356;2024-03-06T05:41:10;1.50;99.90
35531;DHT22;21637;53.352;-6.356;2024-03-06T05:43:36;1.50;99.90
35531;DHT22;21637;53.352;-6.356;2024-03-06T05:46:02;1.60;99.90
35531;DHT22;21637;53.352;-6.356;2024-03-06T05:48:28;1.50;99.90
35531;DHT22;21637;53.352;-6.356;2024-03-06T05:50:54;1.60;99.90
35531;DHT22;21637;53.352;-6.356;2024-03-06T05:53:19;1.60;99.90
35531;DHT22;21637;53.352;-6.356;2024-03-06T05:55:45;1.60;99.90
35531;DHT22;21637;53.352;-6.356;2024-03-06T05:58:11;1.50;99.90
35531;DHT22;21637;53.352;-6.356;2024-03-06T06:00:37;1.60;99.90
35531;DHT22;21637;53.352;-6.356;2024-03-06T06:03:03;1.50;99.90
35531;DHT22;21637;53.352;-6.356;2024-03-06T06:05:29;1.50;99.90
35531;DHT22;21637;53.352;-6.356;2024-03-06T06:07:55;1.60;99.90
35531;DHT22;21637;53.352;-6.356;2024-03-06T06:10:21;1.70;99.90
35531;DHT22;21637;53.352;-6.356;2024-03-06T06:12:46;1.90;99.90
35531;DHT22;21637;53.352;-6.356;2024-03-06T06:15:12;1.80;99.90
35531;DHT22;21637;53.352;-6.356;2024-03-06T06:17:38;1.80;99.90
35531;DHT22;21637;53.352;-6.356;2024-03-06T06:20:07;1.90;99.90
35531;DHT22;21637;53.352;-6.356;2024-03-06T06:22:36;1.90;99.90
35531;DHT22;21637;53.352;-6.356;2024-03-06T06:25:02;1.90;99.90
35531;DHT22;21637;53.352;-6.356;2024-03-06T06:27:29;1.90;99.90
35531;DHT22;21637;53.352;-6.356;2024-03-06T06:29:55;2.00;99.90
35531;DHT22;21637;53.352;-6.356;2024-03-06T06:32:21;1.90;99.90
35531;DHT22;21637;53.352;-6.356;2024-03-06T06:34:47;1.90;99.90
35531;DHT22;21637;53.352;-6.356;2024-03-06T06:37:12;1.90;99.90
35531;DHT22;21637;53.352;-6.356;2024-03-06T06:39:40;1.90;99.90
35531;DHT22;21637;53.352;-6.356;2024-03-06T06:42:06;2.00;99.90
35531;DHT22;21637;53.352;-6.356;2024-03-06T06:44:32;1.90;99.90
35531;DHT22;21637;53.352;-6.356;2024-03-06T06:46:57;1.90;99.90
35531;DHT22;21637;53.352;-6.356;2024-03-06T06:49:24;2.00;99.90
35531;DHT22;21637;53.352;-6.356;2024-03-06T06:51:49;1.90;99.90
35531;DHT22;21637;53.352;-6.356;2024-03-06T06:54:15;1.80;99.90
35531;DHT22;21637;53.352;-6.356;2024-03-06T06:56:41;1.80;99.90
35531;DHT22;21637;53.352;-6.356;2024-03-06T06:59:07;1.90;99.90
35531;DHT22;21637;53.352;-6.356;2024-03-06T07:01:33;2.10;99.90
35531;DHT22;21637;53.352;-6.356;2024-03-06T07:03:59;2.40;99.90
35531;DHT22;21637;53.352;-6.356;2024-03-06T07:06:25;2.40;99.90
35531;DHT22;21637;53.352;-6.356;2024-03-06T07:08:50;2.30;99.90
35531;DHT22;21637;53.352;-6.356;2024-03-06T07:11:17;2.40;99.90
35531;DHT22;21637;53.352;-6.356;2024-03-06T07:13:47;2.50;99.90
35531;DHT22;21637;53.352;-6.356;2024-03-06T07:16:12;2.60;99.90
35531;DHT22;21637;53.352;-6.356;2024-03-06T07:18:38;2.90;99.90
35531;DHT22;21637;53.352;-6.356;2024-03-06T07:21:04;3.00;99.90
35531;DHT22;21637;53.352;-6.356;2024-03-06T07:23:30;3.10;99.90
35531;DHT22;21637;53.352;-6.356;2024-03-06T07:25:55;3.40;99.90
35531;DHT22;21637;53.352;-6.356;2024-03-06T07:28:23;3.70;99.90
35531;DHT22;21637;53.352;-6.356;2024-03-06T07:30:48;4.10;99.90
35531;DHT22;21637;53.352;-6.356;2024-03-06T07:33:14;4.60;99.90
35531;DHT22;21637;53.352;-6.356;2024-03-06T07:35:40;4.70;99.90
35531;DHT22;21637;53.352;-6.356;2024-03-06T07:38:05;4.90;99.90
35531;DHT22;21637;53.352;-6.356;2024-03-06T07:40:31;4.90;99.90
35531;DHT22;21637;53.352;-6.356;2024-03-06T07:43:00;5.20;99.90
35531;DHT22;21637;53.352;-6.356;2024-03-06T07:45:26;5.20;99.90
35531;DHT22;21637;53.352;-6.356;2024-03-06T07:47:52;5.30;99.90
35531;DHT22;21637;53.352;-6.356;2024-03-06T07:50:18;5.50;99.90
35531;DHT22;21637;53.352;-6.356;2024-03-06T07:52:47;5.70;99.90
35531;DHT22;21637;53.352;-6.356;2024-03-06T07:55:13;5.80;99.90
35531;DHT22;21637;53.352;-6.356;2024-03-06T07:57:39;5.80;99.90
35531;DHT22;21637;53.352;-6.356;2024-03-06T08:00:06;6.10;99.90
35531;DHT22;21637;53.352;-6.356;2024-03-06T08:02:40;6.10;99.90
35531;DHT22;21637;53.352;-6.356;2024-03-06T08:05:10;6.10;99.90
35531;DHT22;21637;53.352;-6.356;2024-03-06T08:07:40;6.20;99.90
35531;DHT22;21637;53.352;-6.356;2024-03-06T08:10:10;6.30;99.90
35531;DHT22;21637;53.352;-6.356;2024-03-06T08:12:40;6.40;99.90
35531;DHT22;21637;53.352;-6.356;2024-03-06T08:15:07;6.60;99.90
35531;DHT22;21637;53.352;-6.356;2024-03-06T08:17:35;6.70;99.90
35531;DHT22;21637;53.352;-6.356;2024-03-06T08:20:02;6.80;99.90
35531;DHT22;21637;53.352;-6.356;2024-03-06T08:22:40;6.90;99.90
35531;DHT22;21637;53.352;-6.356;2024-03-06T08:25:07;6.90;99.90
35531;DHT22;21637;53.352;-6.356;2024-03-06T08:27:35;7.10;99.90
35531;DHT22;21637;53.352;-6.356;2024-03-06T08:30:03;7.20;99.90
35531;DHT22;21637;53.352;-6.356;2024-03-06T08:32:31;7.20;99.90
35531;DHT22;21637;53.352;-6.356;2024-03-06T08:35:07;7.40;99.90
35531;DHT22;21637;53.352;-6.356;2024-03-06T08:37:35;7.50;99.90
35531;DHT22;21637;53.352;-6.356;2024-03-06T08:40:01;7.50;99.90
35531;DHT22;21637;53.352;-6.356;2024-03-06T08:42:29;7.60;99.90
35531;DHT22;21637;53.352;-6.356;2024-03-06T08:44:55;7.60;99.90
35531;DHT22;21637;53.352;-6.356;2024-03-06T08:47:22;7.70;99.90
35531;DHT22;21637;53.352;-6.356;2024-03-06T08:49:48;7.70;99.90
35531;DHT22;21637;53.352;-6.356;2024-03-06T08:52:14;7.70;99.90
35531;DHT22;21637;53.352;-6.356;2024-03-06T08:54:43;7.80;99.90
35531;DHT22;21637;53.352;-6.356;2024-03-06T08:57:10;7.80;99.90
35531;DHT22;21637;53.352;-6.356;2024-03-06T08:59:36;7.90;99.90
35531;DHT22;21637;53.352;-6.356;2024-03-06T09:02:15;7.90;99.90
35531;DHT22;21637;53.352;-6.356;2024-03-06T09:04:42;7.90;99.90
35531;DHT22;21637;53.352;-6.356;2024-03-06T09:07:08;7.90;99.90
35531;DHT22;21637;53.352;-6.356;2024-03-06T09:09:35;8.00;99.90
35531;DHT22;21637;53.352;-6.356;2024-03-06T09:12:02;8.00;99.90
35531;DHT22;21637;53.352;-6.356;2024-03-06T09:14:31;8.10;99.90
35531;DHT22;21637;53.352;-6.356;2024-03-06T09:16:57;8.20;99.90
35531;DHT22;21637;53.352;-6.356;2024-03-06T09:19:23;8.30;99.90
35531;DHT22;21637;53.352;-6.356;2024-03-06T09:21:49;8.30;99.90
35531;DHT22;21637;53.352;-6.356;2024-03-06T09:24:14;8.40;99.90
35531;DHT22;21637;53.352;-6.356;2024-03-06T09:26:40;8.40;99.90
35531;DHT22;21637;53.352;-6.356;2024-03-06T09:29:06;8.50;99.90
35531;DHT22;21637;53.352;-6.356;2024-03-06T09:31:31;8.60;99.90
35531;DHT22;21637;53.352;-6.356;2024-03-06T09:33:57;8.60;99.90
35531;DHT22;21637;53.352;-6.356;2024-03-06T09:36:23;8.70;99.90
35531;DHT22;21637;53.352;-6.356;2024-03-06T09:38:50;8.70;99.90
35531;DHT22;21637;53.352;-6.356;2024-03-06T09:41:18;8.80;99.90
35531;DHT22;21637;53.352;-6.356;2024-03-06T09:43:44;8.80;99.90
35531;DHT22;21637;53.352;-6.356;2024-03-06T09:46:10;8.90;99.90
35531;DHT22;21637;53.352;-6.356;2024-03-06T09:48:36;8.90;99.90
35531;DHT22;21637;53.352;-6.356;2024-03-06T09:51:09;8.90;99.90
35531;DHT22;21637;53.352;-6.356;2024-03-06T09:53:35;8.90;99.90
35531;DHT22;21637;53.352;-6.356;2024-03-06T09:56:02;8.90;99.90
35531;DHT22;21637;53.352;-6.356;2024-03-06T09:58:28;9.00;99.90
35531;DHT22;21637;53.352;-6.356;2024-03-06T10:00:55;9.00;99.90
35531;DHT22;21637;53.352;-6.356;2024-03-06T10:03:23;9.10;99.90
35531;DHT22;21637;53.352;-6.356;2024-03-06T10:05:48;9.10;99.90
35531;DHT22;21637;53.352;-6.356;2024-03-06T10:08:14;9.20;99.90
35531;DHT22;21637;53.352;-6.356;2024-03-06T10:10:42;9.20;99.90
35531;DHT22;21637;53.352;-6.356;2024-03-06T10:13:08;9.20;99.90
35531;DHT22;21637;53.352;-6.356;2024-03-06T10:15:34;9.30;99.90
35531;DHT22;21637;53.352;-6.356;2024-03-06T10:18:12;9.30;99.90
35531;DHT22;21637;53.352;-6.356;2024-03-06T10:20:38;9.40;99.90
35531;DHT22;21637;53.352;-6.356;2024-03-06T10:23:04;9.40;99.90
35531;DHT22;21637;53.352;-6.356;2024-03-06T10:25:30;9.50;99.90
35531;DHT22;21637;53.352;-6.356;2024-03-06T10:28:12;9.50;99.90
35531;DHT22;21637;53.352;-6.356;2024-03-06T10:30:39;9.60;99.90
35531;DHT22;21637;53.352;-6.356;2024-03-06T10:33:09;9.60;99.90
35531;DHT22;21637;53.352;-6.356;2024-03-06T10:35:35;9.60;99.90
35531;DHT22;21637;53.352;-6.356;2024-03-06T10:38:05;9.70;99.90
35531;DHT22;21637;53.352;-6.356;2024-03-06T10:40:33;9.60;99.90
35531;DHT22;21637;53.352;-6.356;2024-03-06T10:43:00;9.60;99.90
35531;DHT22;21637;53.352;-6.356;2024-03-06T10:45:40;9.50;99.90
35531;DHT22;21637;53.352;-6.356;2024-03-06T10:48:09;9.50;99.90
35531;DHT22;21637;53.352;-6.356;2024-03-06T10:50:39;9.40;99.90
35531;DHT22;21637;53.352;-6.356;2024-03-06T10:53:09;9.40;99.90
35531;DHT22;21637;53.352;-6.356;2024-03-06T10:55:39;9.50;99.90
35531;DHT22;21637;53.352;-6.356;2024-03-06T10:58:08;9.50;99.90
35531;DHT22;21637;53.352;-6.356;2024-03-06T11:00:37;9.60;99.90
35531;DHT22;21637;53.352;-6.356;2024-03-06T11:03:05;9.60;99.90
35531;DHT22;21637;53.352;-6.356;2024-03-06T11:05:35;9.70;99.90
35531;DHT22;21637;53.352;-6.356;2024-03-06T11:08:02;9.80;99.90
35531;DHT22;21637;53.352;-6.356;2024-03-06T11:10:32;9.90;99.90
35531;DHT22;21637;53.352;-6.356;2024-03-06T11:12:58;9.90;99.90
35531;DHT22;21637;53.352;-6.356;2024-03-06T11:15:24;10.00;99.90
35531;DHT22;21637;53.352;-6.356;2024-03-06T11:17:50;10.10;99.90
35531;DHT22;21637;53.352;-6.356;2024-03-06T11:20:19;10.10;99.90
35531;DHT22;21637;53.352;-6.356;2024-03-06T11:28:18;10.30;99.90
35531;DHT22;21637;53.352;-6.356;2024-03-06T11:31:05;10.30;99.90
35531;DHT22;21637;53.352;-6.356;2024-03-06T11:33:42;10.30;99.90
35531;DHT22;21637;53.352;-6.356;2024-03-06T11:36:25;10.40;99.90
35531;DHT22;21637;53.352;-6.356;2024-03-06T11:41:29;10.50;99.90
35531;DHT22;21637;53.352;-6.356;2024-03-06T11:43:56;10.50;99.90
35531;DHT22;21637;53.352;-6.356;2024-03-06T11:46:23;10.40;99.90
35531;DHT22;21637;53.352;-6.356;2024-03-06T11:49:18;10.40;99.90
35531;DHT22;21637;53.352;-6.356;2024-03-06T11:51:49;10.50;99.90
35531;DHT22;21637;53.352;-6.356;2024-03-06T11:54:15;10.50;99.90
35531;DHT22;21637;53.352;-6.356;2024-03-06T11:56:42;10.50;99.90
35531;DHT22;21637;53.352;-6.356;2024-03-06T11:59:09;10.40;99.90
35531;DHT22;21637;53.352;-6.356;2024-03-06T12:01:36;10.50;99.90
35531;DHT22;21637;53.352;-6.356;2024-03-06T12:04:03;10.50;99.90
35531;DHT22;21637;53.352;-6.356;2024-03-06T12:06:31;10.50;99.90
35531;DHT22;21637;53.352;-6.356;2024-03-06T12:08:58;10.60;99.90
35531;DHT22;21637;53.352;-6.356;2024-03-06T12:11:24;10.60;99.90
35531;DHT22;21637;53.352;-6.356;2024-03-06T12:13:51;10.60;99.90
35531;DHT22;21637;53.352;-6.356;2024-03-06T12:16:17;10.60;99.90
35531;DHT22;21637;53.352;-6.356;2024-03-06T12:18:45;10.70;99.90
35531;DHT22;21637;53.352;-6.356;2024-03-06T12:21:11;10.80;99.90
35531;DHT22;21637;53.352;-6.356;2024-03-06T12:23:39;10.90;99.90
35531;DHT22;21637;53.352;-6.356;2024-03-06T12:26:09;11.00;99.90
35531;DHT22;21637;53.352;-6.356;2024-03-06T12:28:37;11.10;99.90
35531;DHT22;21637;53.352;-6.356;2024-03-06T12:31:03;11.20;99.90
35531;DHT22;21637;53.352;-6.356;2024-03-06T12:33:30;11.30;99.90
35531;DHT22;21637;53.352;-6.356;2024-03-06T12:36:06;11.40;99.90
35531;DHT22;21637;53.352;-6.356;2024-03-06T12:38:36;11.40;99.90
35531;DHT22;21637;53.352;-6.356;2024-03-06T12:41:02;11.40;99.90
35531;DHT22;21637;53.352;-6.356;2024-03-06T12:43:29;11.50;99.90
35531;DHT22;21637;53.352;-6.356;2024-03-06T12:45:56;11.50;99.90
35531;DHT22;21637;53.352;-6.356;2024-03-06T12:48:24;11.60;99.90
35531;DHT22;21637;53.352;-6.356;2024-03-06T12:50:51;11.70;99.90
35531;DHT22;21637;53.352;-6.356;2024-03-06T12:53:20;11.70;99.90
35531;DHT22;21637;53.352;-6.356;2024-03-06T12:55:46;11.60;99.90
35531;DHT22;21637;53.352;-6.356;2024-03-06T12:58:12;11.50;99.90
35531;DHT22;21637;53.352;-6.356;2024-03-06T13:00:38;11.50;99.90
35531;DHT22;21637;53.352;-6.356;2024-03-06T13:03:05;11.40;99.90
35531;DHT22;21637;53.352;-6.356;2024-03-06T13:05:31;11.30;99.90
35531;DHT22;21637;53.352;-6.356;2024-03-06T13:07:57;11.30;99.90
35531;DHT22;21637;53.352;-6.356;2024-03-06T13:10:23;11.20;99.90
35531;DHT22;21637;53.352;-6.356;2024-03-06T13:12:48;11.30;99.90
35531;DHT22;21637;53.352;-6.356;2024-03-06T13:15:14;11.30;99.90
35531;DHT22;21637;53.352;-6.356;2024-03-06T13:17:40;11.30;99.90
35531;DHT22;21637;53.352;-6.356;2024-03-06T13:20:07;11.30;99.90
35531;DHT22;21637;53.352;-6.356;2024-03-06T13:22:40;11.30;99.90
35531;DHT22;21637;53.352;-6.356;2024-03-06T13:25:06;11.20;99.90
35531;DHT22;21637;53.352;-6.356;2024-03-06T13:27:32;11.20;99.90
35531;DHT22;21637;53.352;-6.356;2024-03-06T13:29:58;11.10;99.90
35531;DHT22;21637;53.352;-6.356;2024-03-06T13:32:24;11.10;99.90
35531;DHT22;21637;53.352;-6.356;2024-03-06T13:34:50;11.10;99.90
35531;DHT22;21637;53.352;-6.356;2024-03-06T13:37:16;11.00;99.90
35531;DHT22;21637;53.352;-6.356;2024-03-06T13:39:41;10.90;99.90
35531;DHT22;21637;53.352;-6.356;2024-03-06T13:42:07;11.00;99.90
35531;DHT22;21637;53.352;-6.356;2024-03-06T13:44:37;11.00;99.90
35531;DHT22;21637;53.352;-6.356;2024-03-06T13:47:03;11.00;99.90
35531;DHT22;21637;53.352;-6.356;2024-03-06T13:49:40;10.90;99.90
35531;DHT22;21637;53.352;-6.356;2024-03-06T13:52:07;10.90;99.90
35531;DHT22;21637;53.352;-6.356;2024-03-06T13:54:38;11.00;99.90
35531;DHT22;21637;53.352;-6.356;2024-03-06T13:57:04;10.90;99.90
35531;DHT22;21637;53.352;-6.356;2024-03-06T13:59:31;10.80;99.90
35531;DHT22;21637;53.352;-6.356;2024-03-06T14:01:57;10.80;99.90
35531;DHT22;21637;53.352;-6.356;2024-03-06T14:04:24;10.80;99.90
35531;DHT22;21637;53.352;-6.356;2024-03-06T14:06:50;10.70;99.90
35531;DHT22;21637;53.352;-6.356;2024-03-06T14:09:16;10.70;99.90
35531;DHT22;21637;53.352;-6.356;2024-03-06T14:11:42;10.70;99.90
35531;DHT22;21637;53.352;-6.356;2024-03-06T14:14:08;10.60;99.90
35531;DHT22;21637;53.352;-6.356;2024-03-06T14:16:38;10.50;99.90
35531;DHT22;21637;53.352;-6.356;2024-03-06T14:19:05;10.50;99.90
35531;DHT22;21637;53.352;-6.356;2024-03-06T14:21:31;10.50;99.90
35531;DHT22;21637;53.352;-6.356;2024-03-06T14:24:01;10.50;99.90
35531;DHT22;21637;53.352;-6.356;2024-03-06T14:26:32;10.50;99.90
35531;DHT22;21637;53.352;-6.356;2024-03-06T14:29:01;10.50;99.90
35531;DHT22;21637;53.352;-6.356;2024-03-06T14:31:28;10.50;99.90
35531;DHT22;21637;53.352;-6.356;2024-03-06T14:33:54;10.50;99.90
35531;DHT22;21637;53.352;-6.356;2024-03-06T14:36:21;10.40;99.90
35531;DHT22;21637;53.352;-6.356;2024-03-06T14:38:52;10.40;99.90
35531;DHT22;21637;53.352;-6.356;2024-03-06T14:41:21;10.40;99.90
35531;DHT22;21637;53.352;-6.356;2024-03-06T14:43:47;10.30;99.90
35531;DHT22;21637;53.352;-6.356;2024-03-06T14:46:13;10.30;99.90
35531;DHT22;21637;53.352;-6.356;2024-03-06T14:48:39;10.30;99.90
35531;DHT22;21637;53.352;-6.356;2024-03-06T14:51:06;10.20;99.90
35531;DHT22;21637;53.352;-6.356;2024-03-06T14:53:32;10.20;99.90
35531;DHT22;21637;53.352;-6.356;2024-03-06T14:55:58;10.10;99.90
35531;DHT22;21637;53.352;-6.356;2024-03-06T14:58:24;10.10;99.90
35531;DHT22;21637;53.352;-6.356;2024-03-06T15:00:50;10.10;99.90
35531;DHT22;21637;53.352;-6.356;2024-03-06T15:03:19;10.10;99.90
35531;DHT22;21637;53.352;-6.356;2024-03-06T15:05:45;10.10;99.90
35531;DHT22;21637;53.352;-6.356;2024-03-06T15:08:11;10.10;99.90
35531;DHT22;21637;53.352;-6.356;2024-03-06T15:10:37;10.10;99.90
35531;DHT22;21637;53.352;-6.356;2024-03-06T15:13:03;10.10;99.90
35531;DHT22;21637;53.352;-6.356;2024-03-06T15:15:30;10.10;99.90
35531;DHT22;21637;53.352;-6.356;2024-03-06T15:17:57;10.10;99.90
35531;DHT22;21637;53.352;-6.356;2024-03-06T15:20:23;10.20;99.90
35531;DHT22;21637;53.352;-6.356;2024-03-06T15:22:49;10.20;99.90
35531;DHT22;21637;53.352;-6.356;2024-03-06T15:25:15;10.30;99.90
35531;DHT22;21637;53.352;-6.356;2024-03-06T15:27:41;10.30;99.90
35531;DHT22;21637;53.352;-6.356;2024-03-06T15:30:10;10.20;99.90
35531;DHT22;21637;53.352;-6.356;2024-03-06T15:32:37;10.30;99.90
35531;DHT22;21637;53.352;-6.356;2024-03-06T15:35:04;10.30;99.90